createdAt,value
2019-05-25T00:00:29.238Z,0.27
2019-05-25T00:03:01.567Z,0.30
2019-05-25T00:05:34.356Z,0.20
2019-05-25T00:08:07.475Z,0.40
2019-05-25T00:10:43.249Z,0.20
2019-05-25T00:13:16.220Z,0.23
2019-05-25T00:15:49.599Z,0.20
2019-05-25T00:18:22.204Z,0.30
2019-05-25T00:20:54.979Z,0.40
2019-05-25T00:23:27.930Z,0.30
2019-05-25T00:26:00.752Z,0.30
2019-05-25T00:28:32.915Z,0.30
2019-05-25T00:31:05.825Z,0.30
2019-05-25T00:33:38.134Z,0.30
2019-05-25T00:36:10.652Z,0.30
2019-05-25T00:38:42.918Z,0.30
2019-05-25T00:41:15.275Z,0.37
2019-05-25T00:43:47.651Z,0.30
2019-05-25T00:46:20.468Z,0.30
2019-05-25T00:48:52.745Z,0.40
2019-05-25T00:51:25.343Z,0.40
2019-05-25T00:53:58.602Z,0.40
2019-05-25T00:56:31.141Z,0.30
2019-05-25T00:59:03.639Z,0.33
2019-05-25T01:01:36.046Z,0.30
2019-05-25T01:04:08.586Z,0.30
2019-05-25T01:06:41.179Z,0.30
2019-05-25T01:09:13.806Z,0.40
2019-05-25T01:11:46.207Z,0.30
2019-05-25T01:14:19.103Z,0.30
2019-05-25T01:16:51.620Z,0.30
2019-05-25T01:19:24.335Z,0.40
2019-05-25T01:21:57.067Z,0.33
2019-05-25T01:24:43.159Z,0.40
2019-05-25T01:27:03.506Z,0.40
2019-05-25T01:29:35.891Z,0.40
2019-05-25T01:32:09.071Z,0.47
2019-05-25T01:34:41.372Z,0.40
2019-05-25T01:37:14.141Z,0.40
2019-05-25T01:39:46.997Z,0.40
2019-05-25T01:42:20.120Z,0.50
2019-05-25T01:44:52.489Z,0.50
2019-05-25T01:47:24.983Z,0.40
2019-05-25T01:49:57.535Z,0.50
2019-05-25T01:52:30.162Z,0.40
2019-05-25T01:55:03.059Z,0.40
2019-05-25T01:57:35.886Z,0.50
2019-05-25T02:00:09.691Z,0.40
2019-05-25T02:02:42.130Z,0.47
2019-05-25T02:05:15.226Z,0.40
2019-05-25T02:07:47.753Z,0.40
2019-05-25T02:10:20.015Z,0.40
2019-05-25T02:12:52.479Z,0.37
2019-05-25T02:15:24.868Z,0.40
2019-05-25T02:17:57.904Z,0.50
2019-05-25T02:20:30.303Z,0.40
2019-05-25T02:23:02.965Z,0.50
2019-05-25T02:25:35.698Z,0.40
2019-05-25T02:28:08.210Z,0.40
2019-05-25T02:30:41.240Z,0.33
2019-05-25T02:33:14.003Z,0.40
2019-05-25T02:35:46.520Z,0.50
2019-05-25T02:38:19.787Z,0.50
2019-05-25T02:40:52.470Z,0.40
2019-05-25T02:43:25.098Z,0.40
2019-05-25T02:45:57.303Z,0.50
2019-05-25T02:48:29.604Z,0.50
2019-05-25T02:51:02.061Z,0.40
2019-05-25T02:53:34.635Z,0.50
2019-05-25T02:56:07.449Z,0.50
2019-05-25T02:58:40.031Z,0.50
2019-05-25T03:01:12.571Z,0.43
2019-05-25T03:03:45.178Z,0.50
2019-05-25T03:06:17.587Z,0.50
2019-05-25T03:08:50.526Z,0.40
2019-05-25T03:11:23.898Z,0.47
2019-05-25T03:13:57.041Z,0.50
2019-05-25T03:16:29.957Z,0.50
2019-05-25T03:19:02.122Z,0.50
2019-05-25T03:21:34.904Z,0.40
2019-05-25T03:24:07.481Z,0.50
2019-05-25T03:26:39.890Z,0.50
2019-05-25T03:29:12.637Z,0.40
2019-05-25T03:31:45.549Z,0.50
2019-05-25T03:34:18.729Z,0.50
2019-05-25T03:36:51.210Z,0.40
2019-05-25T03:39:23.892Z,0.40
2019-05-25T03:41:56.424Z,0.40
2019-05-25T03:44:28.894Z,0.43
2019-05-25T03:47:01.314Z,0.50
2019-05-25T03:49:33.876Z,0.50
2019-05-25T03:52:06.493Z,0.50
2019-05-25T03:54:39.671Z,0.40
2019-05-25T03:57:12.403Z,0.50
2019-05-25T03:59:44.957Z,0.47
2019-05-25T04:02:17.678Z,0.40
2019-05-25T04:04:50.702Z,0.50
2019-05-25T04:07:24.546Z,0.40
2019-05-25T04:09:57.194Z,0.40
2019-05-25T04:12:29.663Z,0.40
2019-05-25T04:15:01.932Z,0.50
2019-05-25T04:17:34.491Z,0.40
2019-05-25T04:20:06.780Z,0.50
2019-05-25T04:22:39.562Z,0.40
2019-05-25T04:25:12.342Z,0.40
2019-05-25T04:27:45.126Z,0.40
2019-05-25T04:30:17.456Z,0.50
2019-05-25T04:32:50.273Z,0.40
2019-05-25T04:35:22.809Z,0.47
2019-05-25T04:37:55.846Z,0.47
2019-05-25T04:40:28.225Z,0.50
2019-05-25T04:43:00.990Z,0.43
2019-05-25T04:45:33.637Z,0.47
2019-05-25T04:48:06.073Z,0.50
2019-05-25T04:50:38.597Z,0.40
2019-05-25T04:53:11.315Z,0.50
2019-05-25T04:55:44.404Z,0.60
2019-05-25T04:58:20.561Z,0.50
2019-05-25T05:00:53.304Z,0.50
2019-05-25T05:03:26.195Z,0.47
2019-05-25T05:05:58.894Z,0.60
2019-05-25T05:08:35.395Z,0.50
2019-05-25T05:11:05.901Z,0.50
2019-05-25T05:13:38.922Z,0.50
2019-05-25T05:16:11.186Z,0.57
2019-05-25T05:18:44.217Z,0.50
2019-05-25T05:21:16.928Z,0.50
2019-05-25T05:23:49.514Z,0.50
2019-05-25T05:26:21.728Z,0.50
2019-05-25T05:28:54.261Z,0.47
2019-05-25T05:31:26.834Z,0.50
2019-05-25T05:34:00.231Z,0.40
2019-05-25T05:36:34.009Z,0.40
2019-05-25T05:39:08.985Z,0.50
2019-05-25T05:41:42.373Z,0.40
2019-05-25T05:44:16.677Z,0.50
2019-05-25T05:46:51.201Z,0.40
2019-05-25T05:49:24.602Z,0.50
2019-05-25T05:51:59.599Z,0.50
2019-05-25T05:54:32.755Z,0.40
2019-05-25T05:57:12.231Z,0.50
2019-05-25T05:59:40.572Z,0.50
2019-05-25T06:02:13.182Z,0.47
2019-05-25T06:04:46.326Z,0.57
2019-05-25T06:07:19.306Z,0.50
2019-05-25T06:09:51.883Z,0.50
2019-05-25T06:12:24.553Z,0.40
2019-05-25T06:14:56.847Z,0.50
2019-05-25T06:17:29.562Z,0.50
2019-05-25T06:20:02.085Z,0.50
2019-05-25T06:22:34.612Z,0.50
2019-05-25T06:25:07.175Z,0.50
2019-05-25T06:27:40.228Z,0.43
2019-05-25T06:30:12.973Z,0.50
2019-05-25T06:32:45.831Z,0.50
2019-05-25T06:35:18.689Z,0.50
2019-05-25T06:37:51.293Z,0.50
2019-05-25T06:40:24.133Z,0.47
2019-05-25T06:42:57.077Z,0.53
2019-05-25T06:45:29.906Z,0.50
2019-05-25T06:48:02.324Z,0.50
2019-05-25T06:50:34.415Z,0.40
2019-05-25T06:53:07.269Z,0.50
2019-05-25T06:55:39.825Z,0.50
2019-05-25T06:58:12.786Z,0.50
2019-05-25T07:00:45.461Z,0.50
2019-05-25T07:03:18.360Z,0.50
2019-05-25T07:05:50.321Z,0.50
2019-05-25T07:08:23.350Z,0.50
2019-05-25T07:10:55.981Z,0.60
2019-05-25T07:13:28.921Z,0.50
2019-05-25T07:16:02.020Z,0.50
2019-05-25T07:18:35.570Z,0.50
2019-05-25T07:21:08.670Z,0.50
2019-05-25T07:23:41.300Z,0.50
2019-05-25T07:26:33.423Z,0.43
2019-05-25T07:29:06.041Z,0.57
2019-05-25T07:31:38.976Z,0.50
2019-05-25T07:34:11.504Z,0.40
2019-05-25T07:36:44.282Z,0.50
2019-05-25T07:39:16.694Z,0.50
2019-05-25T07:41:49.459Z,0.50
2019-05-25T07:44:21.876Z,0.50
2019-05-25T07:46:54.593Z,0.50
2019-05-25T07:49:26.901Z,0.50
2019-05-25T07:52:02.078Z,0.50
2019-05-25T07:54:35.046Z,0.40
2019-05-25T07:57:07.443Z,0.50
2019-05-25T07:59:40.132Z,0.40
2019-05-25T08:02:13.251Z,0.50
2019-05-25T08:04:45.737Z,0.50
2019-05-25T08:07:18.362Z,0.50
2019-05-25T08:09:51.057Z,0.40
2019-05-25T08:12:24.057Z,0.50
2019-05-25T08:14:56.649Z,0.57
2019-05-25T08:17:29.206Z,0.40
2019-05-25T08:20:01.925Z,0.60
2019-05-25T08:22:34.403Z,0.60
2019-05-25T08:25:07.662Z,0.43
2019-05-25T08:27:40.744Z,0.40
2019-05-25T08:30:13.945Z,0.50
2019-05-25T08:32:46.530Z,0.50
2019-05-25T08:35:19.097Z,0.50
2019-05-25T08:37:51.363Z,0.43
2019-05-25T08:40:24.422Z,0.50
2019-05-25T08:42:56.729Z,0.50
2019-05-25T08:45:29.633Z,0.47
2019-05-25T08:48:02.016Z,0.50
2019-05-25T08:50:38.255Z,0.53
2019-05-25T08:53:09.462Z,0.50
2019-05-25T08:55:42.038Z,0.50
2019-05-25T08:58:14.745Z,0.40
2019-05-25T09:00:47.073Z,0.50
2019-05-25T09:03:20.234Z,0.50
2019-05-25T09:05:52.912Z,0.50
2019-05-25T09:08:25.161Z,0.50
2019-05-25T09:10:57.742Z,0.50
2019-05-25T09:13:30.610Z,0.60
2019-05-25T09:16:02.931Z,0.50
2019-05-25T09:18:35.777Z,0.50
2019-05-25T09:21:08.208Z,0.47
2019-05-25T09:23:40.438Z,0.40
2019-05-25T09:26:15.174Z,0.50
2019-05-25T09:29:01.639Z,0.50
2019-05-25T09:31:21.941Z,0.50
2019-05-25T09:33:54.421Z,0.50
2019-05-25T09:36:27.343Z,0.50
2019-05-25T09:38:59.977Z,0.50
2019-05-25T09:41:32.308Z,0.50
2019-05-25T09:44:05.121Z,0.50
2019-05-25T09:46:37.501Z,0.50
2019-05-25T09:49:10.315Z,0.53
2019-05-25T09:51:43.126Z,0.50
2019-05-25T09:54:15.449Z,0.50
2019-05-25T09:56:48.022Z,0.47
2019-05-25T09:59:20.761Z,0.50
2019-05-25T10:01:53.557Z,0.50
2019-05-25T10:04:26.690Z,0.50
2019-05-25T10:06:59.241Z,0.50
2019-05-25T10:09:32.059Z,0.50
2019-05-25T10:12:04.539Z,0.50
2019-05-25T10:14:37.601Z,0.50
2019-05-25T10:17:10.854Z,0.40
2019-05-25T10:19:43.270Z,0.40
2019-05-25T10:22:18.406Z,0.43
2019-05-25T10:24:51.002Z,0.50
2019-05-25T10:27:23.508Z,0.50
2019-05-25T10:29:56.766Z,0.50
2019-05-25T10:32:29.286Z,0.57
2019-05-25T10:35:02.015Z,0.50
2019-05-25T10:37:34.902Z,0.50
2019-05-25T10:40:07.675Z,0.50
2019-05-25T10:42:40.252Z,0.40
2019-05-25T10:45:14.161Z,0.50
2019-05-25T10:47:46.655Z,0.50
2019-05-25T10:50:19.630Z,0.40
2019-05-25T10:52:52.174Z,0.50
2019-05-25T10:55:25.186Z,0.50
2019-05-25T10:57:57.394Z,0.40
2019-05-25T11:00:29.857Z,0.43
2019-05-25T11:03:02.410Z,0.40
2019-05-25T11:05:35.174Z,0.40
2019-05-25T11:08:07.874Z,0.40
2019-05-25T11:10:40.561Z,0.50
2019-05-25T11:13:13.082Z,0.40
2019-05-25T11:15:45.677Z,0.50
2019-05-25T11:18:17.918Z,0.50
2019-05-25T11:20:50.856Z,0.40
2019-05-25T11:23:23.440Z,0.40
2019-05-25T11:25:55.668Z,0.40
2019-05-25T11:28:28.714Z,0.40
2019-05-25T11:31:01.677Z,0.40
2019-05-25T11:33:36.360Z,0.40
2019-05-25T11:36:08.108Z,0.50
2019-05-25T11:38:40.583Z,0.40
2019-05-25T11:41:13.629Z,0.40
2019-05-25T11:43:46.436Z,0.43
2019-05-25T11:46:19.213Z,0.40
2019-05-25T11:48:51.819Z,0.40
2019-05-25T11:51:24.354Z,0.40
2019-05-25T11:53:56.728Z,0.40
2019-05-25T11:56:29.006Z,0.40
2019-05-25T11:59:01.929Z,0.40
2019-05-25T12:01:34.497Z,0.40
2019-05-25T12:04:06.618Z,0.37
2019-05-25T12:06:40.033Z,0.40
2019-05-25T12:09:12.597Z,0.40
2019-05-25T12:11:44.971Z,0.40
2019-05-25T12:14:17.427Z,0.30
2019-05-25T12:16:49.903Z,0.30
2019-05-25T12:19:22.265Z,0.30
2019-05-25T12:21:55.072Z,0.40
2019-05-25T12:24:27.235Z,0.40
2019-05-25T12:27:00.398Z,0.30
2019-05-25T12:29:33.366Z,0.30
2019-05-25T12:32:06.206Z,0.30
2019-05-25T12:34:38.609Z,0.30
2019-05-25T12:37:11.257Z,0.37
2019-05-25T12:39:44.147Z,0.30
2019-05-25T12:42:16.660Z,0.30
2019-05-25T12:44:49.031Z,0.30
2019-05-25T12:47:21.970Z,0.30
2019-05-25T12:49:54.469Z,0.30
2019-05-25T12:52:26.817Z,0.30
2019-05-25T12:54:59.439Z,0.20
2019-05-25T12:57:31.969Z,0.30
2019-05-25T13:00:14.877Z,0.20
2019-05-25T13:02:38.741Z,0.33
2019-05-25T13:05:11.008Z,0.30
2019-05-25T13:07:43.453Z,0.20
2019-05-25T13:10:16.603Z,0.23
2019-05-25T13:12:49.475Z,0.20
2019-05-25T13:15:21.801Z,0.20
2019-05-25T13:17:57.609Z,0.20
2019-05-25T13:20:30.721Z,0.20
2019-05-25T13:23:05.459Z,0.20
2019-05-25T13:25:37.741Z,0.20
2019-05-25T13:28:10.525Z,0.20
2019-05-25T13:30:43.429Z,0.20
2019-05-25T13:33:15.930Z,0.20
2019-05-25T13:35:48.537Z,0.20
2019-05-25T13:38:20.977Z,0.30
2019-05-25T13:40:53.676Z,0.30
2019-05-25T13:43:25.969Z,0.20
2019-05-25T13:45:57.958Z,0.10
2019-05-25T13:48:30.383Z,0.20
2019-05-25T13:51:02.901Z,0.20
2019-05-25T13:53:35.749Z,0.20
2019-05-25T13:56:08.435Z,0.30
2019-05-25T13:58:41.060Z,0.20
2019-05-25T14:01:27.447Z,0.20
2019-05-25T14:03:47.290Z,0.20
2019-05-25T14:06:19.985Z,0.20
2019-05-25T14:08:52.741Z,0.20
2019-05-25T14:11:25.433Z,0.20
2019-05-25T14:13:58.202Z,0.20
2019-05-25T14:16:30.713Z,0.20
2019-05-25T14:19:02.814Z,0.20
2019-05-25T14:21:35.718Z,0.20
2019-05-25T14:24:08.453Z,0.20
2019-05-25T14:26:41.498Z,0.20
2019-05-25T14:29:17.157Z,0.20
2019-05-25T14:31:50.535Z,0.20
2019-05-25T14:34:23.742Z,0.20
2019-05-25T14:36:56.191Z,0.20
2019-05-25T14:39:28.392Z,0.20
2019-05-25T14:42:00.754Z,0.20
2019-05-25T14:44:33.339Z,0.20
2019-05-25T14:47:06.125Z,0.20
2019-05-25T14:49:38.861Z,0.20
2019-05-25T14:52:11.412Z,0.20
2019-05-25T14:54:43.743Z,0.20
2019-05-25T14:57:16.417Z,0.20
2019-05-25T14:59:49.432Z,0.20
2019-05-25T15:02:22.422Z,0.20
2019-05-25T15:04:54.843Z,0.20
2019-05-25T15:07:27.653Z,0.20
2019-05-25T15:10:01.052Z,0.20
2019-05-25T15:12:33.730Z,0.20
2019-05-25T15:15:06.538Z,0.20
2019-05-25T15:17:42.355Z,0.27
2019-05-25T15:20:15.430Z,0.20
2019-05-25T15:22:48.441Z,0.20
2019-05-25T15:25:20.801Z,0.20
2019-05-25T15:27:53.842Z,0.20
2019-05-25T15:30:26.498Z,0.20
2019-05-25T15:32:59.232Z,0.27
2019-05-25T15:35:31.743Z,0.20
2019-05-25T15:38:04.382Z,0.27
2019-05-25T15:40:39.011Z,0.23
2019-05-25T15:43:11.201Z,0.20
2019-05-25T15:45:43.487Z,0.20
2019-05-25T15:48:16.234Z,0.20
2019-05-25T15:50:48.952Z,0.20
2019-05-25T15:53:21.684Z,0.20
2019-05-25T15:55:53.953Z,0.20
2019-05-25T15:58:26.882Z,0.20
2019-05-25T16:01:00.758Z,0.20
2019-05-25T16:03:33.281Z,0.20
2019-05-25T16:06:06.398Z,0.20
2019-05-25T16:08:38.569Z,0.20
2019-05-25T16:11:11.525Z,0.30
2019-05-25T16:13:43.751Z,0.30
2019-05-25T16:16:16.278Z,0.20
2019-05-25T16:18:48.781Z,0.30
2019-05-25T16:21:20.933Z,0.20
2019-05-25T16:23:53.853Z,0.20
2019-05-25T16:26:26.273Z,0.20
2019-05-25T16:28:58.878Z,0.20
2019-05-25T16:31:32.042Z,0.30
2019-05-25T16:34:04.910Z,0.30
2019-05-25T16:36:37.045Z,0.20
2019-05-25T16:39:10.861Z,0.30
2019-05-25T16:41:43.785Z,0.30
2019-05-25T16:44:16.081Z,0.20
2019-05-25T16:46:48.617Z,0.20
2019-05-25T16:49:21.913Z,0.30
2019-05-25T16:51:54.706Z,0.20
2019-05-25T16:54:29.426Z,0.30
2019-05-25T16:57:02.117Z,0.30
2019-05-25T16:59:34.595Z,0.30
2019-05-25T17:02:06.961Z,0.30
2019-05-25T17:04:39.519Z,0.20
2019-05-25T17:07:12.615Z,0.27
2019-05-25T17:09:45.696Z,0.20
2019-05-25T17:12:18.418Z,0.30
2019-05-25T17:14:50.845Z,0.23
2019-05-25T17:17:23.607Z,0.30
2019-05-25T17:19:56.254Z,0.23
2019-05-25T17:22:28.506Z,0.30
2019-05-25T17:25:01.003Z,0.20
2019-05-25T17:27:33.749Z,0.30
2019-05-25T17:30:09.583Z,0.30
2019-05-25T17:32:42.097Z,0.23
2019-05-25T17:35:15.059Z,0.30
2019-05-25T17:37:47.434Z,0.30
2019-05-25T17:40:20.121Z,0.30
2019-05-25T17:42:52.394Z,0.20
2019-05-25T17:45:25.166Z,0.30
2019-05-25T17:47:57.484Z,0.40
2019-05-25T17:50:30.197Z,0.37
2019-05-25T17:53:02.498Z,0.40
2019-05-25T17:55:35.329Z,0.30
2019-05-25T17:58:07.645Z,0.30
2019-05-25T18:00:42.167Z,0.37
2019-05-25T18:03:15.327Z,0.30
2019-05-25T18:05:48.080Z,0.40
2019-05-25T18:08:20.409Z,0.40
2019-05-25T18:10:54.257Z,0.30
2019-05-25T18:13:29.343Z,0.30
2019-05-25T18:16:01.913Z,0.30
2019-05-25T18:18:34.369Z,0.33
2019-05-25T18:21:07.292Z,0.30
2019-05-25T18:23:40.007Z,0.40
2019-05-25T18:26:13.264Z,0.37
2019-05-25T18:28:45.871Z,0.30
2019-05-25T18:31:18.799Z,0.30
2019-05-25T18:33:51.861Z,0.30
2019-05-25T18:36:25.721Z,0.40
2019-05-25T18:38:58.301Z,0.30
2019-05-25T18:41:30.717Z,0.30
2019-05-25T18:44:03.416Z,0.30
2019-05-25T18:46:36.093Z,0.30
2019-05-25T18:49:08.326Z,0.30
2019-05-25T18:51:40.494Z,0.30
2019-05-25T18:54:13.053Z,0.30
2019-05-25T18:56:45.733Z,0.30
2019-05-25T18:59:18.314Z,0.30
2019-05-25T19:01:50.445Z,0.30
2019-05-25T19:04:41.970Z,0.30
2019-05-25T19:06:56.810Z,0.30
2019-05-25T19:09:29.630Z,0.30
2019-05-25T19:12:02.511Z,0.30
2019-05-25T19:14:35.722Z,0.37
2019-05-25T19:17:08.050Z,0.30
2019-05-25T19:19:41.285Z,0.30
2019-05-25T19:22:13.733Z,0.30
2019-05-25T19:24:45.879Z,0.30
2019-05-25T19:27:18.236Z,0.30
2019-05-25T19:29:50.630Z,0.30
2019-05-25T19:32:23.187Z,0.30
2019-05-25T19:34:59.454Z,0.30
2019-05-25T19:37:31.130Z,0.30
2019-05-25T19:40:08.584Z,0.30
2019-05-25T19:42:38.069Z,0.30
2019-05-25T19:45:14.758Z,0.30
2019-05-25T19:47:47.721Z,0.30
2019-05-25T19:50:20.570Z,0.37
2019-05-25T19:52:52.955Z,0.20
2019-05-25T19:55:25.264Z,0.30
2019-05-25T19:57:58.266Z,0.30
2019-05-25T20:00:30.730Z,0.30
2019-05-25T20:03:03.391Z,0.30
2019-05-25T20:05:36.141Z,0.30
2019-05-25T20:08:08.861Z,0.30
2019-05-25T20:10:41.791Z,0.37
2019-05-25T20:13:14.731Z,0.30
2019-05-25T20:15:47.794Z,0.30
2019-05-25T20:18:20.385Z,0.30
2019-05-25T20:20:52.581Z,0.30
2019-05-25T20:23:24.805Z,0.30
2019-05-25T20:25:57.613Z,0.20
2019-05-25T20:28:30.085Z,0.30
2019-05-25T20:31:02.358Z,0.30
2019-05-25T20:33:35.498Z,0.20
2019-05-25T20:36:07.834Z,0.30
2019-05-25T20:38:40.198Z,0.30
2019-05-25T20:41:13.177Z,0.20
2019-05-25T20:43:45.857Z,0.30
2019-05-25T20:46:18.363Z,0.30
2019-05-25T20:48:51.077Z,0.30
2019-05-25T20:51:26.480Z,0.23
2019-05-25T20:53:59.348Z,0.30
2019-05-25T20:56:31.817Z,0.30
2019-05-25T20:59:04.097Z,0.30
2019-05-25T21:01:36.975Z,0.30
2019-05-25T21:04:09.469Z,0.30
2019-05-25T21:06:41.950Z,0.30
2019-05-25T21:09:14.263Z,0.30
2019-05-25T21:11:46.565Z,0.30
2019-05-25T21:14:18.800Z,0.20
2019-05-25T21:16:52.240Z,0.30
2019-05-25T21:19:24.459Z,0.30
2019-05-25T21:21:56.900Z,0.30
2019-05-25T21:24:29.543Z,0.30
2019-05-25T21:27:02.092Z,0.30
2019-05-25T21:29:35.015Z,0.30
2019-05-25T21:32:07.434Z,0.30
2019-05-25T21:34:40.430Z,0.30
2019-05-25T21:37:13.945Z,0.30
2019-05-25T21:39:46.459Z,0.20
2019-05-25T21:42:19.141Z,0.30
2019-05-25T21:44:51.670Z,0.30
2019-05-25T21:47:25.620Z,0.30
2019-05-25T21:49:58.583Z,0.30
2019-05-25T21:52:32.063Z,0.30
2019-05-25T21:55:04.607Z,0.30
2019-05-25T21:57:36.865Z,0.20
2019-05-25T22:00:12.183Z,0.30
2019-05-25T22:02:45.541Z,0.30
2019-05-25T22:05:18.619Z,0.30
2019-05-25T22:07:51.014Z,0.30
2019-05-25T22:10:26.393Z,0.30
2019-05-25T22:12:59.092Z,0.30
2019-05-25T22:15:31.714Z,0.27
2019-05-25T22:18:05.209Z,0.30
2019-05-25T22:20:37.977Z,0.30
2019-05-25T22:23:10.222Z,0.30
2019-05-25T22:25:42.580Z,0.20
2019-05-25T22:28:15.206Z,0.30
2019-05-25T22:30:48.041Z,0.30
2019-05-25T22:33:20.564Z,0.30
2019-05-25T22:35:53.515Z,0.20
2019-05-25T22:38:27.212Z,0.20
2019-05-25T22:40:59.624Z,0.20
2019-05-25T22:43:32.009Z,0.30
2019-05-25T22:46:04.880Z,0.30
2019-05-25T22:48:37.517Z,0.20
2019-05-25T22:51:10.070Z,0.30
2019-05-25T22:53:44.886Z,0.30
2019-05-25T22:56:18.620Z,0.30
2019-05-25T22:58:50.678Z,0.30
2019-05-25T23:01:23.334Z,0.30
2019-05-25T23:03:56.153Z,0.30
2019-05-25T23:06:28.644Z,0.30
2019-05-25T23:09:01.299Z,0.27
2019-05-25T23:11:34.149Z,0.30
2019-05-25T23:14:19.952Z,0.20
2019-05-25T23:16:52.515Z,0.30
2019-05-25T23:19:25.259Z,0.30
2019-05-25T23:21:58.902Z,0.30
2019-05-25T23:24:31.726Z,0.30
2019-05-25T23:27:04.095Z,0.30
2019-05-25T23:29:36.347Z,0.30
2019-05-25T23:32:09.694Z,0.30
2019-05-25T23:34:42.396Z,0.30
2019-05-25T23:37:15.933Z,0.30
2019-05-25T23:39:48.717Z,0.20
2019-05-25T23:42:21.399Z,0.30
2019-05-25T23:44:53.945Z,0.40
2019-05-25T23:47:26.528Z,0.30
2019-05-25T23:49:59.757Z,0.30
2019-05-25T23:52:32.445Z,0.30
2019-05-25T23:55:05.533Z,0.30
2019-05-25T23:57:38.139Z,0.30
